sensor_id;sensor_type;location;lat;lon;timestamp;P1;durP1;ratioP1;P2;durP2;ratioP2
18407;SDS011;9330;52.210;21.174;2023-11-21T00:00:23;27.98;;;20.33;;
18407;SDS011;9330;52.210;21.174;2023-11-21T00:02:52;24.10;;;17.60;;
18407;SDS011;9330;52.210;21.174;2023-11-21T00:05:19;31.05;;;21.27;;
18407;SDS011;9330;52.210;21.174;2023-11-21T00:07:48;23.85;;;17.60;;
18407;SDS011;9330;52.210;21.174;2023-11-21T00:10:16;26.00;;;19.00;;
18407;SDS011;9330;52.210;21.174;2023-11-21T00:12:43;32.80;;;23.25;;
18407;SDS011;9330;52.210;21.174;2023-11-21T00:15:13;25.83;;;18.45;;
18407;SDS011;9330;52.210;21.174;2023-11-21T00:17:40;26.25;;;19.60;;
18407;SDS011;9330;52.210;21.174;2023-11-21T00:20:09;28.40;;;19.92;;
18407;SDS011;9330;52.210;21.174;2023-11-21T00:22:38;23.20;;;17.27;;
18407;SDS011;9330;52.210;21.174;2023-11-21T00:25:05;24.95;;;18.40;;
18407;SDS011;9330;52.210;21.174;2023-11-21T00:27:34;30.73;;;20.58;;
18407;SDS011;9330;52.210;21.174;2023-11-21T00:30:01;30.85;;;21.02;;
18407;SDS011;9330;52.210;21.174;2023-11-21T00:32:30;26.65;;;18.73;;
18407;SDS011;9330;52.210;21.174;2023-11-21T00:34:57;27.02;;;19.02;;
18407;SDS011;9330;52.210;21.174;2023-11-21T00:37:25;34.28;;;22.65;;
18407;SDS011;9330;52.210;21.174;2023-11-21T00:39:52;30.73;;;21.10;;
18407;SDS011;9330;52.210;21.174;2023-11-21T00:42:19;31.83;;;20.58;;
18407;SDS011;9330;52.210;21.174;2023-11-21T00:44:47;28.17;;;19.33;;
18407;SDS011;9330;52.210;21.174;2023-11-21T00:47:13;27.58;;;19.88;;
18407;SDS011;9330;52.210;21.174;2023-11-21T00:49:41;33.55;;;22.67;;
18407;SDS011;9330;52.210;21.174;2023-11-21T00:52:08;24.33;;;17.63;;
18407;SDS011;9330;52.210;21.174;2023-11-21T00:54:36;25.98;;;18.27;;
18407;SDS011;9330;52.210;21.174;2023-11-21T00:57:03;23.55;;;16.35;;
18407;SDS011;9330;52.210;21.174;2023-11-21T00:59:30;29.48;;;20.60;;
18407;SDS011;9330;52.210;21.174;2023-11-21T01:01:57;25.77;;;19.00;;
18407;SDS011;9330;52.210;21.174;2023-11-21T01:04:25;26.15;;;18.92;;
18407;SDS011;9330;52.210;21.174;2023-11-21T01:06:52;26.60;;;18.70;;
18407;SDS011;9330;52.210;21.174;2023-11-21T01:09:19;25.08;;;18.63;;
18407;SDS011;9330;52.210;21.174;2023-11-21T01:11:47;26.75;;;19.42;;
18407;SDS011;9330;52.210;21.174;2023-11-21T01:14:14;29.20;;;19.58;;
18407;SDS011;9330;52.210;21.174;2023-11-21T01:16:42;22.20;;;17.17;;
18407;SDS011;9330;52.210;21.174;2023-11-21T01:19:09;22.98;;;17.25;;
18407;SDS011;9330;52.210;21.174;2023-11-21T01:21:36;23.45;;;17.17;;
18407;SDS011;9330;52.210;21.174;2023-11-21T01:24:03;24.40;;;18.88;;
18407;SDS011;9330;52.210;21.174;2023-11-21T01:26:32;23.65;;;17.52;;
18407;SDS011;9330;52.210;21.174;2023-11-21T01:29:00;24.50;;;18.73;;
18407;SDS011;9330;52.210;21.174;2023-11-21T01:31:27;21.35;;;16.98;;
18407;SDS011;9330;52.210;21.174;2023-11-21T01:33:54;23.17;;;17.02;;
18407;SDS011;9330;52.210;21.174;2023-11-21T01:36:21;23.67;;;18.27;;
18407;SDS011;9330;52.210;21.174;2023-11-21T01:38:48;26.15;;;18.52;;
18407;SDS011;9330;52.210;21.174;2023-11-21T01:41:15;22.48;;;17.52;;
18407;SDS011;9330;52.210;21.174;2023-11-21T01:43:42;22.80;;;16.95;;
18407;SDS011;9330;52.210;21.174;2023-11-21T01:46:10;22.60;;;17.60;;
18407;SDS011;9330;52.210;21.174;2023-11-21T01:48:37;22.70;;;17.30;;
18407;SDS011;9330;52.210;21.174;2023-11-21T01:51:05;22.45;;;16.90;;
18407;SDS011;9330;52.210;21.174;2023-11-21T01:53:33;22.88;;;16.52;;
18407;SDS011;9330;52.210;21.174;2023-11-21T01:56:01;25.17;;;17.73;;
18407;SDS011;9330;52.210;21.174;2023-11-21T01:58:30;23.23;;;16.67;;
18407;SDS011;9330;52.210;21.174;2023-11-21T02:00:57;23.40;;;18.30;;
18407;SDS011;9330;52.210;21.174;2023-11-21T02:03:25;23.95;;;16.55;;
18407;SDS011;9330;52.210;21.174;2023-11-21T02:05:52;28.15;;;19.73;;
18407;SDS011;9330;52.210;21.174;2023-11-21T02:08:19;26.15;;;17.98;;
18407;SDS011;9330;52.210;21.174;2023-11-21T02:10:46;24.75;;;18.48;;
18407;SDS011;9330;52.210;21.174;2023-11-21T02:13:13;21.27;;;16.90;;
18407;SDS011;9330;52.210;21.174;2023-11-21T02:15:41;25.15;;;17.77;;
18407;SDS011;9330;52.210;21.174;2023-11-21T02:18:08;21.08;;;16.20;;
18407;SDS011;9330;52.210;21.174;2023-11-21T02:20:37;25.73;;;18.83;;
18407;SDS011;9330;52.210;21.174;2023-11-21T02:23:08;22.63;;;17.60;;
18407;SDS011;9330;52.210;21.174;2023-11-21T02:25:34;22.15;;;16.63;;
18407;SDS011;9330;52.210;21.174;2023-11-21T02:28:02;24.70;;;17.67;;
18407;SDS011;9330;52.210;21.174;2023-11-21T02:30:32;26.80;;;19.70;;
18407;SDS011;9330;52.210;21.174;2023-11-21T02:32:58;20.67;;;15.70;;
18407;SDS011;9330;52.210;21.174;2023-11-21T02:35:24;24.23;;;17.35;;
18407;SDS011;9330;52.210;21.174;2023-11-21T02:37:51;23.40;;;16.85;;
18407;SDS011;9330;52.210;21.174;2023-11-21T02:40:20;24.30;;;17.77;;
18407;SDS011;9330;52.210;21.174;2023-11-21T02:42:47;23.17;;;16.30;;
18407;SDS011;9330;52.210;21.174;2023-11-21T02:45:16;28.98;;;19.65;;
18407;SDS011;9330;52.210;21.174;2023-11-21T02:47:43;24.60;;;16.98;;
18407;SDS011;9330;52.210;21.174;2023-11-21T02:50:11;24.13;;;17.58;;
18407;SDS011;9330;52.210;21.174;2023-11-21T02:52:38;25.75;;;18.98;;
18407;SDS011;9330;52.210;21.174;2023-11-21T02:55:06;22.10;;;15.98;;
18407;SDS011;9330;52.210;21.174;2023-11-21T02:57:34;22.80;;;16.10;;
18407;SDS011;9330;52.210;21.174;2023-11-21T03:00:01;22.27;;;15.93;;
18407;SDS011;9330;52.210;21.174;2023-11-21T03:02:32;22.15;;;15.55;;
18407;SDS011;9330;52.210;21.174;2023-11-21T03:05:01;21.48;;;16.08;;
18407;SDS011;9330;52.210;21.174;2023-11-21T03:07:30;24.08;;;17.98;;
18407;SDS011;9330;52.210;21.174;2023-11-21T03:09:56;23.00;;;16.98;;
18407;SDS011;9330;52.210;21.174;2023-11-21T03:12:23;24.23;;;17.35;;
18407;SDS011;9330;52.210;21.174;2023-11-21T03:14:52;25.45;;;18.23;;
18407;SDS011;9330;52.210;21.174;2023-11-21T03:17:19;26.55;;;18.27;;
18407;SDS011;9330;52.210;21.174;2023-11-21T03:19:46;25.45;;;18.70;;
18407;SDS011;9330;52.210;21.174;2023-11-21T03:22:13;26.65;;;19.52;;
18407;SDS011;9330;52.210;21.174;2023-11-21T03:24:40;23.58;;;17.60;;
18407;SDS011;9330;52.210;21.174;2023-11-21T03:27:06;23.10;;;16.88;;
18407;SDS011;9330;52.210;21.174;2023-11-21T03:29:34;28.73;;;19.60;;
18407;SDS011;9330;52.210;21.174;2023-11-21T03:32:02;23.23;;;16.70;;
18407;SDS011;9330;52.210;21.174;2023-11-21T03:34:29;23.13;;;17.30;;
18407;SDS011;9330;52.210;21.174;2023-11-21T03:36:56;28.20;;;19.58;;
18407;SDS011;9330;52.210;21.174;2023-11-21T03:39:23;25.48;;;18.88;;
18407;SDS011;9330;52.210;21.174;2023-11-21T03:41:50;26.13;;;17.73;;
18407;SDS011;9330;52.210;21.174;2023-11-21T03:44:17;24.23;;;18.02;;
18407;SDS011;9330;52.210;21.174;2023-11-21T03:46:44;28.23;;;19.38;;
18407;SDS011;9330;52.210;21.174;2023-11-21T03:49:12;29.33;;;19.23;;
18407;SDS011;9330;52.210;21.174;2023-11-21T03:51:39;22.08;;;15.95;;
18407;SDS011;9330;52.210;21.174;2023-11-21T03:54:06;21.08;;;15.43;;
18407;SDS011;9330;52.210;21.174;2023-11-21T03:56:33;20.70;;;15.40;;
18407;SDS011;9330;52.210;21.174;2023-11-21T03:59:00;26.27;;;17.70;;
18407;SDS011;9330;52.210;21.174;2023-11-21T04:01:26;19.02;;;14.73;;
18407;SDS011;9330;52.210;21.174;2023-11-21T04:03:53;22.25;;;15.77;;
18407;SDS011;9330;52.210;21.174;2023-11-21T04:06:21;18.90;;;14.27;;
18407;SDS011;9330;52.210;21.174;2023-11-21T04:08:48;18.95;;;14.95;;
18407;SDS011;9330;52.210;21.174;2023-11-21T04:11:15;28.90;;;16.60;;
18407;SDS011;9330;52.210;21.174;2023-11-21T04:13:43;23.35;;;16.77;;
18407;SDS011;9330;52.210;21.174;2023-11-21T04:16:11;22.40;;;14.63;;
18407;SDS011;9330;52.210;21.174;2023-11-21T04:18:38;22.48;;;16.85;;
18407;SDS011;9330;52.210;21.174;2023-11-21T04:21:06;22.50;;;16.40;;
18407;SDS011;9330;52.210;21.174;2023-11-21T04:23:35;26.17;;;18.30;;
18407;SDS011;9330;52.210;21.174;2023-11-21T04:26:02;25.02;;;17.85;;
18407;SDS011;9330;52.210;21.174;2023-11-21T04:28:29;24.90;;;18.02;;
18407;SDS011;9330;52.210;21.174;2023-11-21T04:30:55;25.63;;;17.13;;
18407;SDS011;9330;52.210;21.174;2023-11-21T04:33:22;24.67;;;17.60;;
18407;SDS011;9330;52.210;21.174;2023-11-21T04:35:50;23.35;;;17.05;;
18407;SDS011;9330;52.210;21.174;2023-11-21T04:38:17;22.50;;;16.67;;
18407;SDS011;9330;52.210;21.174;2023-11-21T04:40:45;23.70;;;16.67;;
18407;SDS011;9330;52.210;21.174;2023-11-21T04:43:12;17.42;;;13.88;;
18407;SDS011;9330;52.210;21.174;2023-11-21T04:45:39;19.40;;;14.82;;
18407;SDS011;9330;52.210;21.174;2023-11-21T04:48:06;20.70;;;16.48;;
18407;SDS011;9330;52.210;21.174;2023-11-21T04:50:34;20.23;;;14.25;;
18407;SDS011;9330;52.210;21.174;2023-11-21T04:53:01;20.60;;;15.30;;
18407;SDS011;9330;52.210;21.174;2023-11-21T04:55:28;19.25;;;14.40;;
18407;SDS011;9330;52.210;21.174;2023-11-21T04:57:57;20.92;;;15.95;;
18407;SDS011;9330;52.210;21.174;2023-11-21T05:00:24;19.95;;;14.80;;
18407;SDS011;9330;52.210;21.174;2023-11-21T05:02:51;18.17;;;13.18;;
18407;SDS011;9330;52.210;21.174;2023-11-21T05:05:18;18.60;;;14.32;;
18407;SDS011;9330;52.210;21.174;2023-11-21T05:07:45;17.75;;;13.35;;
18407;SDS011;9330;52.210;21.174;2023-11-21T05:10:14;15.32;;;12.32;;
18407;SDS011;9330;52.210;21.174;2023-11-21T05:12:41;17.98;;;13.93;;
18407;SDS011;9330;52.210;21.174;2023-11-21T05:15:10;17.60;;;13.07;;
18407;SDS011;9330;52.210;21.174;2023-11-21T05:17:40;15.95;;;12.55;;
18407;SDS011;9330;52.210;21.174;2023-11-21T05:20:08;16.10;;;12.70;;
18407;SDS011;9330;52.210;21.174;2023-11-21T05:22:37;16.65;;;11.90;;
18407;SDS011;9330;52.210;21.174;2023-11-21T05:25:04;13.63;;;10.93;;
18407;SDS011;9330;52.210;21.174;2023-11-21T05:27:33;16.52;;;12.75;;
18407;SDS011;9330;52.210;21.174;2023-11-21T05:30:00;15.63;;;11.88;;
18407;SDS011;9330;52.210;21.174;2023-11-21T05:32:29;17.85;;;13.10;;
18407;SDS011;9330;52.210;21.174;2023-11-21T05:34:56;14.25;;;11.30;;
18407;SDS011;9330;52.210;21.174;2023-11-21T05:37:23;16.40;;;12.52;;
18407;SDS011;9330;52.210;21.174;2023-11-21T05:39:52;15.48;;;10.90;;
18407;SDS011;9330;52.210;21.174;2023-11-21T05:42:19;16.30;;;12.18;;
18407;SDS011;9330;52.210;21.174;2023-11-21T05:44:46;15.00;;;11.55;;
18407;SDS011;9330;52.210;21.174;2023-11-21T05:47:13;14.73;;;11.65;;
18407;SDS011;9330;52.210;21.174;2023-11-21T05:49:41;16.30;;;12.02;;
18407;SDS011;9330;52.210;21.174;2023-11-21T05:52:08;13.45;;;10.68;;
18407;SDS011;9330;52.210;21.174;2023-11-21T05:54:35;16.35;;;11.23;;
18407;SDS011;9330;52.210;21.174;2023-11-21T05:57:02;14.48;;;10.60;;
18407;SDS011;9330;52.210;21.174;2023-11-21T05:59:29;18.42;;;13.68;;
18407;SDS011;9330;52.210;21.174;2023-11-21T06:01:56;14.60;;;10.90;;
18407;SDS011;9330;52.210;21.174;2023-11-21T06:04:23;17.55;;;12.20;;
18407;SDS011;9330;52.210;21.174;2023-11-21T06:06:52;14.77;;;10.68;;
18407;SDS011;9330;52.210;21.174;2023-11-21T06:09:19;16.92;;;12.05;;
18407;SDS011;9330;52.210;21.174;2023-11-21T06:11:45;15.18;;;10.93;;
18407;SDS011;9330;52.210;21.174;2023-11-21T06:14:12;15.95;;;11.57;;
18407;SDS011;9330;52.210;21.174;2023-11-21T06:16:42;15.02;;;10.90;;
18407;SDS011;9330;52.210;21.174;2023-11-21T06:19:10;15.65;;;11.15;;
18407;SDS011;9330;52.210;21.174;2023-11-21T06:21:37;15.00;;;11.23;;
18407;SDS011;9330;52.210;21.174;2023-11-21T06:24:06;14.27;;;10.43;;
18407;SDS011;9330;52.210;21.174;2023-11-21T06:26:33;12.02;;;9.80;;
18407;SDS011;9330;52.210;21.174;2023-11-21T06:29:00;16.67;;;11.27;;
18407;SDS011;9330;52.210;21.174;2023-11-21T06:31:28;16.20;;;11.60;;
18407;SDS011;9330;52.210;21.174;2023-11-21T06:33:55;16.13;;;11.77;;
18407;SDS011;9330;52.210;21.174;2023-11-21T06:36:22;13.25;;;10.60;;
18407;SDS011;9330;52.210;21.174;2023-11-21T06:38:50;16.55;;;11.77;;
18407;SDS011;9330;52.210;21.174;2023-11-21T06:41:18;13.30;;;9.90;;
18407;SDS011;9330;52.210;21.174;2023-11-21T06:43:45;17.58;;;11.85;;
18407;SDS011;9330;52.210;21.174;2023-11-21T06:46:11;16.88;;;10.43;;
18407;SDS011;9330;52.210;21.174;2023-11-21T06:48:39;17.40;;;11.15;;
18407;SDS011;9330;52.210;21.174;2023-11-21T06:51:08;15.07;;;11.20;;
18407;SDS011;9330;52.210;21.174;2023-11-21T06:53:35;15.43;;;11.60;;
18407;SDS011;9330;52.210;21.174;2023-11-21T06:56:02;17.48;;;10.73;;
18407;SDS011;9330;52.210;21.174;2023-11-21T06:58:32;15.57;;;11.30;;
18407;SDS011;9330;52.210;21.174;2023-11-21T07:01:00;15.07;;;11.95;;
18407;SDS011;9330;52.210;21.174;2023-11-21T07:03:26;15.13;;;11.40;;
18407;SDS011;9330;52.210;21.174;2023-11-21T07:05:53;16.77;;;11.57;;
18407;SDS011;9330;52.210;21.174;2023-11-21T07:08:21;20.25;;;14.98;;
18407;SDS011;9330;52.210;21.174;2023-11-21T07:10:47;17.77;;;13.20;;
18407;SDS011;9330;52.210;21.174;2023-11-21T07:13:14;15.18;;;11.50;;
18407;SDS011;9330;52.210;21.174;2023-11-21T07:15:42;19.40;;;13.80;;
18407;SDS011;9330;52.210;21.174;2023-11-21T07:18:09;18.05;;;13.40;;
18407;SDS011;9330;52.210;21.174;2023-11-21T07:20:36;21.90;;;14.60;;
18407;SDS011;9330;52.210;21.174;2023-11-21T07:23:03;18.38;;;12.52;;
18407;SDS011;9330;52.210;21.174;2023-11-21T07:25:30;18.23;;;13.43;;
18407;SDS011;9330;52.210;21.174;2023-11-21T07:27:58;16.15;;;12.75;;
18407;SDS011;9330;52.210;21.174;2023-11-21T07:30:25;18.17;;;13.15;;
18407;SDS011;9330;52.210;21.174;2023-11-21T07:32:53;18.35;;;13.02;;
18407;SDS011;9330;52.210;21.174;2023-11-21T07:35:20;18.88;;;13.55;;
18407;SDS011;9330;52.210;21.174;2023-11-21T07:37:47;18.48;;;13.30;;
18407;SDS011;9330;52.210;21.174;2023-11-21T07:40:14;21.65;;;14.63;;
18407;SDS011;9330;52.210;21.174;2023-11-21T07:42:42;21.00;;;14.63;;
18407;SDS011;9330;52.210;21.174;2023-11-21T07:45:08;18.92;;;13.73;;
18407;SDS011;9330;52.210;21.174;2023-11-21T07:47:36;18.88;;;13.20;;
18407;SDS011;9330;52.210;21.174;2023-11-21T07:50:06;18.77;;;13.07;;
18407;SDS011;9330;52.210;21.174;2023-11-21T07:52:33;17.92;;;12.88;;
18407;SDS011;9330;52.210;21.174;2023-11-21T07:55:00;17.75;;;13.55;;
18407;SDS011;9330;52.210;21.174;2023-11-21T07:57:27;15.90;;;12.27;;
18407;SDS011;9330;52.210;21.174;2023-11-21T07:59:54;16.75;;;12.30;;
18407;SDS011;9330;52.210;21.174;2023-11-21T08:02:21;18.02;;;13.07;;
18407;SDS011;9330;52.210;21.174;2023-11-21T08:04:48;17.45;;;13.13;;
18407;SDS011;9330;52.210;21.174;2023-11-21T08:07:16;16.55;;;12.13;;
18407;SDS011;9330;52.210;21.174;2023-11-21T08:09:43;17.55;;;13.05;;
18407;SDS011;9330;52.210;21.174;2023-11-21T08:12:11;22.90;;;13.48;;
18407;SDS011;9330;52.210;21.174;2023-11-21T08:14:39;15.40;;;11.45;;
18407;SDS011;9330;52.210;21.174;2023-11-21T08:17:06;16.00;;;11.95;;
18407;SDS011;9330;52.210;21.174;2023-11-21T08:19:35;19.77;;;13.98;;
18407;SDS011;9330;52.210;21.174;2023-11-21T08:22:03;14.02;;;10.63;;
18407;SDS011;9330;52.210;21.174;2023-11-21T08:24:34;15.60;;;11.43;;
18407;SDS011;9330;52.210;21.174;2023-11-21T08:27:00;17.38;;;12.73;;
18407;SDS011;9330;52.210;21.174;2023-11-21T08:29:29;16.83;;;12.23;;
18407;SDS011;9330;52.210;21.174;2023-11-21T08:31:56;16.50;;;11.77;;
18407;SDS011;9330;52.210;21.174;2023-11-21T08:34:23;18.05;;;12.50;;
18407;SDS011;9330;52.210;21.174;2023-11-21T08:36:50;17.08;;;11.63;;
18407;SDS011;9330;52.210;21.174;2023-11-21T08:39:16;17.10;;;12.98;;
18407;SDS011;9330;52.210;21.174;2023-11-21T08:41:45;16.48;;;12.07;;
18407;SDS011;9330;52.210;21.174;2023-11-21T08:44:13;19.27;;;14.30;;
18407;SDS011;9330;52.210;21.174;2023-11-21T08:46:41;16.23;;;12.90;;
18407;SDS011;9330;52.210;21.174;2023-11-21T08:49:10;16.13;;;11.43;;
18407;SDS011;9330;52.210;21.174;2023-11-21T08:51:37;18.92;;;13.90;;
18407;SDS011;9330;52.210;21.174;2023-11-21T08:54:05;18.13;;;13.07;;
18407;SDS011;9330;52.210;21.174;2023-11-21T08:56:33;17.42;;;12.48;;
18407;SDS011;9330;52.210;21.174;2023-11-21T08:59:01;18.92;;;13.30;;
18407;SDS011;9330;52.210;21.174;2023-11-21T09:01:28;18.90;;;12.95;;
18407;SDS011;9330;52.210;21.174;2023-11-21T09:03:56;18.10;;;12.45;;
18407;SDS011;9330;52.210;21.174;2023-11-21T09:06:23;15.65;;;12.52;;
18407;SDS011;9330;52.210;21.174;2023-11-21T09:08:50;17.40;;;12.27;;
18407;SDS011;9330;52.210;21.174;2023-11-21T09:11:17;20.35;;;14.23;;
18407;SDS011;9330;52.210;21.174;2023-11-21T09:13:44;15.48;;;12.50;;
18407;SDS011;9330;52.210;21.174;2023-11-21T09:16:13;19.77;;;13.07;;
18407;SDS011;9330;52.210;21.174;2023-11-21T09:18:40;20.98;;;14.50;;
18407;SDS011;9330;52.210;21.174;2023-11-21T09:21:07;17.35;;;12.15;;
18407;SDS011;9330;52.210;21.174;2023-11-21T09:23:35;22.17;;;15.60;;
18407;SDS011;9330;52.210;21.174;2023-11-21T09:26:02;17.70;;;13.98;;
18407;SDS011;9330;52.210;21.174;2023-11-21T09:28:30;16.25;;;12.07;;
18407;SDS011;9330;52.210;21.174;2023-11-21T09:30:57;15.63;;;11.80;;
18407;SDS011;9330;52.210;21.174;2023-11-21T09:33:25;17.30;;;13.48;;
18407;SDS011;9330;52.210;21.174;2023-11-21T09:35:52;19.35;;;14.00;;
18407;SDS011;9330;52.210;21.174;2023-11-21T09:38:19;15.98;;;12.13;;
18407;SDS011;9330;52.210;21.174;2023-11-21T09:40:46;18.73;;;13.30;;
18407;SDS011;9330;52.210;21.174;2023-11-21T09:43:14;17.08;;;12.68;;
18407;SDS011;9330;52.210;21.174;2023-11-21T09:45:44;19.40;;;14.05;;
18407;SDS011;9330;52.210;21.174;2023-11-21T09:48:13;15.23;;;11.60;;
18407;SDS011;9330;52.210;21.174;2023-11-21T09:50:43;15.27;;;11.82;;
18407;SDS011;9330;52.210;21.174;2023-11-21T09:53:12;17.27;;;13.23;;
18407;SDS011;9330;52.210;21.174;2023-11-21T09:55:44;18.30;;;12.80;;
18407;SDS011;9330;52.210;21.174;2023-11-21T09:58:13;17.05;;;12.52;;
18407;SDS011;9330;52.210;21.174;2023-11-21T10:00:40;16.80;;;12.50;;
18407;SDS011;9330;52.210;21.174;2023-11-21T10:03:07;17.33;;;12.57;;
18407;SDS011;9330;52.210;21.174;2023-11-21T10:05:35;16.55;;;12.45;;
18407;SDS011;9330;52.210;21.174;2023-11-21T10:08:03;17.95;;;14.20;;
18407;SDS011;9330;52.210;21.174;2023-11-21T10:10:33;17.35;;;12.73;;
18407;SDS011;9330;52.210;21.174;2023-11-21T10:13:01;18.58;;;13.30;;
18407;SDS011;9330;52.210;21.174;2023-11-21T10:15:32;19.48;;;13.20;;
18407;SDS011;9330;52.210;21.174;2023-11-21T10:18:01;16.55;;;11.80;;
18407;SDS011;9330;52.210;21.174;2023-11-21T10:20:29;18.13;;;13.20;;
18407;SDS011;9330;52.210;21.174;2023-11-21T10:22:58;15.25;;;11.15;;
18407;SDS011;9330;52.210;21.174;2023-11-21T10:25:28;15.70;;;12.75;;
18407;SDS011;9330;52.210;21.174;2023-11-21T10:27:57;17.73;;;12.13;;
18407;SDS011;9330;52.210;21.174;2023-11-21T10:30:32;19.60;;;14.68;;
18407;SDS011;9330;52.210;21.174;2023-11-21T10:33:02;16.60;;;12.80;;
18407;SDS011;9330;52.210;21.174;2023-11-21T10:35:39;14.85;;;12.10;;
18407;SDS011;9330;52.210;21.174;2023-11-21T10:38:12;15.43;;;11.88;;
18407;SDS011;9330;52.210;21.174;2023-11-21T10:40:40;18.90;;;13.05;;
18407;SDS011;9330;52.210;21.174;2023-11-21T10:43:07;20.23;;;13.18;;
18407;SDS011;9330;52.210;21.174;2023-11-21T10:45:35;17.20;;;13.13;;
18407;SDS011;9330;52.210;21.174;2023-11-21T10:48:04;15.90;;;11.85;;
18407;SDS011;9330;52.210;21.174;2023-11-21T10:50:34;16.10;;;11.93;;
18407;SDS011;9330;52.210;21.174;2023-11-21T10:53:01;14.82;;;11.50;;
18407;SDS011;9330;52.210;21.174;2023-11-21T10:55:30;15.40;;;11.80;;
18407;SDS011;9330;52.210;21.174;2023-11-21T10:57:59;16.48;;;12.15;;
18407;SDS011;9330;52.210;21.174;2023-11-21T11:00:28;18.98;;;13.25;;
18407;SDS011;9330;52.210;21.174;2023-11-21T11:02:56;18.15;;;13.23;;
18407;SDS011;9330;52.210;21.174;2023-11-21T11:05:24;17.08;;;12.05;;
18407;SDS011;9330;52.210;21.174;2023-11-21T11:07:53;17.08;;;13.15;;
18407;SDS011;9330;52.210;21.174;2023-11-21T11:10:26;17.98;;;13.77;;
18407;SDS011;9330;52.210;21.174;2023-11-21T11:12:54;15.80;;;12.05;;
18407;SDS011;9330;52.210;21.174;2023-11-21T11:15:23;16.65;;;12.27;;
18407;SDS011;9330;52.210;21.174;2023-11-21T11:17:52;18.90;;;13.05;;
18407;SDS011;9330;52.210;21.174;2023-11-21T11:20:22;16.95;;;12.30;;
18407;SDS011;9330;52.210;21.174;2023-11-21T11:22:53;19.73;;;12.52;;
18407;SDS011;9330;52.210;21.174;2023-11-21T11:25:34;17.23;;;12.85;;
18407;SDS011;9330;52.210;21.174;2023-11-21T11:28:12;16.80;;;13.57;;
18407;SDS011;9330;52.210;21.174;2023-11-21T11:30:47;17.65;;;12.18;;
18407;SDS011;9330;52.210;21.174;2023-11-21T11:33:30;20.13;;;14.02;;
18407;SDS011;9330;52.210;21.174;2023-11-21T11:36:04;18.73;;;14.60;;
18407;SDS011;9330;52.210;21.174;2023-11-21T11:38:36;18.33;;;12.88;;
18407;SDS011;9330;52.210;21.174;2023-11-21T11:41:03;19.35;;;13.30;;
18407;SDS011;9330;52.210;21.174;2023-11-21T11:43:31;24.17;;;15.55;;
18407;SDS011;9330;52.210;21.174;2023-11-21T11:46:06;18.42;;;13.65;;
18407;SDS011;9330;52.210;21.174;2023-11-21T11:48:34;19.00;;;13.43;;
18407;SDS011;9330;52.210;21.174;2023-11-21T11:51:04;21.00;;;14.00;;
18407;SDS011;9330;52.210;21.174;2023-11-21T11:53:40;18.40;;;13.98;;
18407;SDS011;9330;52.210;21.174;2023-11-21T11:56:24;16.80;;;12.55;;
18407;SDS011;9330;52.210;21.174;2023-11-21T11:58:53;18.25;;;13.40;;
18407;SDS011;9330;52.210;21.174;2023-11-21T12:01:23;17.65;;;13.75;;
18407;SDS011;9330;52.210;21.174;2023-11-21T12:06:56;21.17;;;14.80;;
18407;SDS011;9330;52.210;21.174;2023-11-21T12:09:27;18.38;;;13.50;;
18407;SDS011;9330;52.210;21.174;2023-11-21T12:11:55;18.60;;;13.77;;
18407;SDS011;9330;52.210;21.174;2023-11-21T12:14:22;21.85;;;15.65;;
18407;SDS011;9330;52.210;21.174;2023-11-21T12:16:51;17.52;;;13.07;;
18407;SDS011;9330;52.210;21.174;2023-11-21T12:19:18;19.27;;;13.63;;
18407;SDS011;9330;52.210;21.174;2023-11-21T12:21:47;17.55;;;12.43;;
18407;SDS011;9330;52.210;21.174;2023-11-21T12:24:15;19.67;;;14.15;;
18407;SDS011;9330;52.210;21.174;2023-11-21T12:26:48;18.95;;;13.13;;
18407;SDS011;9330;52.210;21.174;2023-11-21T12:29:25;15.90;;;12.27;;
18407;SDS011;9330;52.210;21.174;2023-11-21T12:31:56;17.02;;;13.15;;
18407;SDS011;9330;52.210;21.174;2023-11-21T12:34:22;18.73;;;13.07;;
18407;SDS011;9330;52.210;21.174;2023-11-21T12:36:49;20.15;;;13.50;;
18407;SDS011;9330;52.210;21.174;2023-11-21T12:39:19;17.50;;;13.00;;
18407;SDS011;9330;52.210;21.174;2023-11-21T12:41:48;16.85;;;13.13;;
18407;SDS011;9330;52.210;21.174;2023-11-21T12:44:15;15.20;;;12.63;;
18407;SDS011;9330;52.210;21.174;2023-11-21T12:46:42;15.48;;;12.80;;
18407;SDS011;9330;52.210;21.174;2023-11-21T12:49:12;17.95;;;12.60;;
18407;SDS011;9330;52.210;21.174;2023-11-21T12:51:42;18.90;;;13.38;;
18407;SDS011;9330;52.210;21.174;2023-11-21T12:54:10;17.50;;;12.20;;
18407;SDS011;9330;52.210;21.174;2023-11-21T12:56:38;15.93;;;12.50;;
18407;SDS011;9330;52.210;21.174;2023-11-21T12:59:05;18.55;;;13.85;;
18407;SDS011;9330;52.210;21.174;2023-11-21T13:01:31;21.33;;;14.55;;
18407;SDS011;9330;52.210;21.174;2023-11-21T13:04:02;18.42;;;12.80;;
18407;SDS011;9330;52.210;21.174;2023-11-21T13:06:31;20.25;;;14.80;;
18407;SDS011;9330;52.210;21.174;2023-11-21T13:09:03;19.73;;;14.20;;
18407;SDS011;9330;52.210;21.174;2023-11-21T13:11:33;20.42;;;14.43;;
18407;SDS011;9330;52.210;21.174;2023-11-21T13:14:01;19.63;;;13.55;;
18407;SDS011;9330;52.210;21.174;2023-11-21T13:16:29;19.33;;;13.73;;
18407;SDS011;9330;52.210;21.174;2023-11-21T13:18:56;17.17;;;13.05;;
18407;SDS011;9330;52.210;21.174;2023-11-21T13:21:23;22.80;;;15.15;;
18407;SDS011;9330;52.210;21.174;2023-11-21T13:23:51;18.05;;;13.40;;
18407;SDS011;9330;52.210;21.174;2023-11-21T13:26:19;17.70;;;13.73;;
18407;SDS011;9330;52.210;21.174;2023-11-21T13:28:48;17.48;;;13.25;;
18407;SDS011;9330;52.210;21.174;2023-11-21T13:31:15;21.58;;;14.50;;
18407;SDS011;9330;52.210;21.174;2023-11-21T13:33:51;18.25;;;13.50;;
18407;SDS011;9330;52.210;21.174;2023-11-21T13:36:21;16.40;;;12.80;;
18407;SDS011;9330;52.210;21.174;2023-11-21T13:38:49;19.65;;;13.48;;
18407;SDS011;9330;52.210;21.174;2023-11-21T13:41:19;22.45;;;14.50;;
18407;SDS011;9330;52.210;21.174;2023-11-21T13:43:53;17.75;;;13.73;;
18407;SDS011;9330;52.210;21.174;2023-11-21T13:46:28;17.05;;;12.32;;
18407;SDS011;9330;52.210;21.174;2023-11-21T13:49:00;20.80;;;13.73;;
18407;SDS011;9330;52.210;21.174;2023-11-21T13:51:27;16.30;;;12.93;;
18407;SDS011;9330;52.210;21.174;2023-11-21T13:54:03;15.88;;;12.55;;
18407;SDS011;9330;52.210;21.174;2023-11-21T13:56:35;20.75;;;14.38;;
18407;SDS011;9330;52.210;21.174;2023-11-21T13:59:03;18.60;;;13.48;;
18407;SDS011;9330;52.210;21.174;2023-11-21T14:01:39;17.48;;;13.68;;
18407;SDS011;9330;52.210;21.174;2023-11-21T14:04:19;17.00;;;12.70;;
18407;SDS011;9330;52.210;21.174;2023-11-21T14:06:59;20.35;;;14.50;;
18407;SDS011;9330;52.210;21.174;2023-11-21T14:09:42;18.85;;;14.35;;
18407;SDS011;9330;52.210;21.174;2023-11-21T14:12:11;18.95;;;13.90;;
18407;SDS011;9330;52.210;21.174;2023-11-21T14:14:39;18.85;;;14.40;;
18407;SDS011;9330;52.210;21.174;2023-11-21T14:17:06;21.40;;;15.63;;
18407;SDS011;9330;52.210;21.174;2023-11-21T14:19:34;21.80;;;14.60;;
18407;SDS011;9330;52.210;21.174;2023-11-21T14:22:04;17.83;;;14.40;;
18407;SDS011;9330;52.210;21.174;2023-11-21T14:24:31;19.50;;;14.57;;
18407;SDS011;9330;52.210;21.174;2023-11-21T14:26:58;21.42;;;14.60;;
18407;SDS011;9330;52.210;21.174;2023-11-21T14:29:26;19.05;;;14.15;;